sensor_id;sensor_type;location;lat;lon;timestamp;P1;durP1;ratioP1;P2;durP2;ratioP2
9264;SDS011;4669;49.594;10.958;2022-09-24T04:23:31;4.60;;;4.22;;
9264;SDS011;4669;49.594;10.958;2022-09-24T04:28:34;6.00;;;4.43;;
9264;SDS011;4669;49.594;10.958;2022-09-24T04:33:35;4.75;;;4.30;;
9264;SDS011;4669;49.594;10.958;2022-09-24T04:38:39;6.60;;;5.22;;
9264;SDS011;4669;49.594;10.958;2022-09-24T04:43:41;21.05;;;13.20;;
9264;SDS011;4669;49.594;10.958;2022-09-24T04:48:45;6.72;;;4.60;;
9264;SDS011;4669;49.594;10.958;2022-09-24T04:53:49;5.63;;;4.97;;
9264;SDS011;4669;49.594;10.958;2022-09-24T04:58:51;5.55;;;4.68;;
9264;SDS011;4669;49.594;10.958;2022-09-24T05:03:53;6.03;;;4.55;;
9264;SDS011;4669;49.594;10.958;2022-09-24T05:08:56;6.55;;;4.70;;
9264;SDS011;4669;49.594;10.958;2022-09-24T05:13:59;5.25;;;4.63;;
9264;SDS011;4669;49.594;10.958;2022-09-24T05:19:01;5.72;;;4.63;;
9264;SDS011;4669;49.594;10.958;2022-09-24T05:24:05;8.55;;;5.90;;
9264;SDS011;4669;49.594;10.958;2022-09-24T05:29:07;11.60;;;9.95;;
9264;SDS011;4669;49.594;10.958;2022-09-24T05:34:09;9.70;;;8.18;;
9264;SDS011;4669;49.594;10.958;2022-09-24T05:39:14;7.15;;;6.50;;
9264;SDS011;4669;49.594;10.958;2022-09-24T05:44:16;8.27;;;5.65;;
9264;SDS011;4669;49.594;10.958;2022-09-24T05:49:20;6.65;;;4.88;;
9264;SDS011;4669;49.594;10.958;2022-09-24T05:54:24;5.40;;;4.90;;
9264;SDS011;4669;49.594;10.958;2022-09-24T05:59:26;5.05;;;4.55;;
9264;SDS011;4669;49.594;10.958;2022-09-24T06:04:28;6.25;;;4.75;;
9264;SDS011;4669;49.594;10.958;2022-09-24T06:09:31;7.25;;;4.90;;
9264;SDS011;4669;49.594;10.958;2022-09-24T06:14:33;6.45;;;4.78;;
9264;SDS011;4669;49.594;10.958;2022-09-24T06:19:35;5.30;;;4.78;;
9264;SDS011;4669;49.594;10.958;2022-09-24T06:24:39;6.95;;;6.15;;
9264;SDS011;4669;49.594;10.958;2022-09-24T06:29:41;10.55;;;6.45;;
9264;SDS011;4669;49.594;10.958;2022-09-24T06:34:43;11.82;;;6.25;;
9264;SDS011;4669;49.594;10.958;2022-09-24T06:39:46;7.70;;;5.40;;
9264;SDS011;4669;49.594;10.958;2022-09-24T06:44:48;11.30;;;8.43;;
9264;SDS011;4669;49.594;10.958;2022-09-24T06:49:50;9.10;;;8.15;;
9264;SDS011;4669;49.594;10.958;2022-09-24T06:54:54;5.68;;;5.18;;
9264;SDS011;4669;49.594;10.958;2022-09-24T06:59:56;8.30;;;5.53;;
9264;SDS011;4669;49.594;10.958;2022-09-24T07:04:58;6.32;;;5.72;;
9264;SDS011;4669;49.594;10.958;2022-09-24T07:10:02;7.05;;;5.00;;
9264;SDS011;4669;49.594;10.958;2022-09-24T07:15:06;9.95;;;5.53;;
9264;SDS011;4669;49.594;10.958;2022-09-24T07:20:08;6.32;;;5.43;;
9264;SDS011;4669;49.594;10.958;2022-09-24T07:25:12;5.22;;;4.72;;
9264;SDS011;4669;49.594;10.958;2022-09-24T07:30:14;7.57;;;5.22;;
9264;SDS011;4669;49.594;10.958;2022-09-24T07:35:16;5.25;;;4.80;;
9264;SDS011;4669;49.594;10.958;2022-09-24T07:40:21;6.07;;;5.47;;
9264;SDS011;4669;49.594;10.958;2022-09-24T07:45:24;7.13;;;5.82;;
9264;SDS011;4669;49.594;10.958;2022-09-24T07:50:28;7.53;;;5.57;;
9264;SDS011;4669;49.594;10.958;2022-09-24T07:55:33;8.18;;;5.97;;
9264;SDS011;4669;49.594;10.958;2022-09-24T08:00:38;8.70;;;6.18;;
9264;SDS011;4669;49.594;10.958;2022-09-24T08:05:43;6.82;;;5.72;;
9264;SDS011;4669;49.594;10.958;2022-09-24T08:10:47;6.95;;;6.20;;
9264;SDS011;4669;49.594;10.958;2022-09-24T08:15:54;7.07;;;6.30;;
9264;SDS011;4669;49.594;10.958;2022-09-24T08:21:00;8.60;;;7.30;;
9264;SDS011;4669;49.594;10.958;2022-09-24T08:26:05;8.55;;;7.00;;
9264;SDS011;4669;49.594;10.958;2022-09-24T08:31:09;8.32;;;6.38;;
9264;SDS011;4669;49.594;10.958;2022-09-24T08:36:13;7.50;;;6.68;;
9264;SDS011;4669;49.594;10.958;2022-09-24T08:41:20;8.70;;;6.57;;
9264;SDS011;4669;49.594;10.958;2022-09-24T08:46:37;7.60;;;6.82;;
9264;SDS011;4669;49.594;10.958;2022-09-24T08:52:02;7.88;;;7.15;;
9264;SDS011;4669;49.594;10.958;2022-09-24T08:57:15;8.95;;;7.85;;
9264;SDS011;4669;49.594;10.958;2022-09-24T09:02:22;8.68;;;7.63;;
9264;SDS011;4669;49.594;10.958;2022-09-24T09:07:38;8.70;;;7.20;;
9264;SDS011;4669;49.594;10.958;2022-09-24T09:12:47;8.45;;;7.65;;
9264;SDS011;4669;49.594;10.958;2022-09-24T09:17:55;10.52;;;7.90;;
9264;SDS011;4669;49.594;10.958;2022-09-24T09:23:02;9.43;;;8.52;;
9264;SDS011;4669;49.594;10.958;2022-09-24T09:28:15;9.95;;;8.70;;
9264;SDS011;4669;49.594;10.958;2022-09-24T09:33:20;8.82;;;8.02;;
9264;SDS011;4669;49.594;10.958;2022-09-24T09:38:32;11.43;;;9.35;;
9264;SDS011;4669;49.594;10.958;2022-09-24T09:43:44;11.07;;;8.40;;
9264;SDS011;4669;49.594;10.958;2022-09-24T09:48:47;10.57;;;9.52;;
9264;SDS011;4669;49.594;10.958;2022-09-24T09:53:53;10.07;;;8.65;;
9264;SDS011;4669;49.594;10.958;2022-09-24T09:59:02;9.93;;;8.88;;
9264;SDS011;4669;49.594;10.958;2022-09-24T10:04:18;10.25;;;9.07;;
9264;SDS011;4669;49.594;10.958;2022-09-24T10:09:27;11.75;;;10.55;;
9264;SDS011;4669;49.594;10.958;2022-09-24T10:14:31;10.73;;;9.32;;
9264;SDS011;4669;49.594;10.958;2022-09-24T10:19:33;12.35;;;9.93;;
9264;SDS011;4669;49.594;10.958;2022-09-24T10:24:39;10.95;;;9.85;;
9264;SDS011;4669;49.594;10.958;2022-09-24T10:29:45;11.20;;;10.00;;
9264;SDS011;4669;49.594;10.958;2022-09-24T10:35:17;10.85;;;9.75;;
9264;SDS011;4669;49.594;10.958;2022-09-24T10:40:21;10.57;;;9.30;;
9264;SDS011;4669;49.594;10.958;2022-09-24T10:45:41;9.95;;;8.95;;
9264;SDS011;4669;49.594;10.958;2022-09-24T10:50:59;10.68;;;9.57;;
9264;SDS011;4669;49.594;10.958;2022-09-24T10:56:13;12.25;;;11.05;;
9264;SDS011;4669;49.594;10.958;2022-09-24T11:01:25;10.50;;;9.48;;
9264;SDS011;4669;49.594;10.958;2022-09-24T11:06:37;13.63;;;10.40;;
9264;SDS011;4669;49.594;10.958;2022-09-24T11:11:53;10.93;;;9.75;;
9264;SDS011;4669;49.594;10.958;2022-09-24T11:17:08;10.52;;;9.40;;
9264;SDS011;4669;49.594;10.958;2022-09-24T11:22:28;10.73;;;8.93;;
9264;SDS011;4669;49.594;10.958;2022-09-24T11:27:45;12.63;;;9.93;;
9264;SDS011;4669;49.594;10.958;2022-09-24T11:32:59;10.40;;;9.40;;
9264;SDS011;4669;49.594;10.958;2022-09-24T11:38:11;12.30;;;9.45;;
9264;SDS011;4669;49.594;10.958;2022-09-24T11:43:23;13.15;;;9.38;;
9264;SDS011;4669;49.594;10.958;2022-09-24T11:48:53;11.52;;;9.57;;
9264;SDS011;4669;49.594;10.958;2022-09-24T11:54:07;11.65;;;9.85;;
9264;SDS011;4669;49.594;10.958;2022-09-24T11:59:19;10.13;;;9.07;;
9264;SDS011;4669;49.594;10.958;2022-09-24T12:04:32;11.38;;;9.43;;
9264;SDS011;4669;49.594;10.958;2022-09-24T12:09:46;12.52;;;9.65;;
9264;SDS011;4669;49.594;10.958;2022-09-24T12:14:52;9.88;;;8.25;;
9264;SDS011;4669;49.594;10.958;2022-09-24T12:20:03;9.90;;;8.55;;
9264;SDS011;4669;49.594;10.958;2022-09-24T12:25:13;8.75;;;7.85;;
9264;SDS011;4669;49.594;10.958;2022-09-24T12:30:20;10.70;;;7.95;;
9264;SDS011;4669;49.594;10.958;2022-09-24T12:35:54;10.77;;;6.95;;
9264;SDS011;4669;49.594;10.958;2022-09-24T12:41:15;6.95;;;5.90;;
9264;SDS011;4669;49.594;10.958;2022-09-24T12:46:23;6.15;;;5.55;;
9264;SDS011;4669;49.594;10.958;2022-09-24T12:51:34;11.63;;;5.32;;
9264;SDS011;4669;49.594;10.958;2022-09-24T12:56:38;9.35;;;5.40;;
9264;SDS011;4669;49.594;10.958;2022-09-24T13:01:40;6.88;;;5.90;;
9264;SDS011;4669;49.594;10.958;2022-09-24T13:06:44;6.13;;;5.60;;
9264;SDS011;4669;49.594;10.958;2022-09-24T13:11:48;7.95;;;7.13;;
9264;SDS011;4669;49.594;10.958;2022-09-24T13:17:03;6.53;;;5.35;;
9264;SDS011;4669;49.594;10.958;2022-09-24T13:22:18;9.73;;;5.63;;
9264;SDS011;4669;49.594;10.958;2022-09-24T13:27:23;5.38;;;4.85;;
9264;SDS011;4669;49.594;10.958;2022-09-24T13:32:37;5.75;;;5.10;;
9264;SDS011;4669;49.594;10.958;2022-09-24T13:37:48;8.45;;;5.18;;
9264;SDS011;4669;49.594;10.958;2022-09-24T13:42:54;4.88;;;4.47;;
9264;SDS011;4669;49.594;10.958;2022-09-24T13:48:03;4.85;;;4.43;;
9264;SDS011;4669;49.594;10.958;2022-09-24T13:53:15;9.10;;;4.90;;
9264;SDS011;4669;49.594;10.958;2022-09-24T13:58:26;7.10;;;4.90;;
9264;SDS011;4669;49.594;10.958;2022-09-24T14:03:29;9.40;;;7.20;;
9264;SDS011;4669;49.594;10.958;2022-09-24T14:08:34;6.57;;;5.10;;
9264;SDS011;4669;49.594;10.958;2022-09-24T14:13:40;6.63;;;5.63;;
9264;SDS011;4669;49.594;10.958;2022-09-24T14:18:45;7.05;;;4.68;;
9264;SDS011;4669;49.594;10.958;2022-09-24T14:23:49;5.95;;;4.70;;
9264;SDS011;4669;49.594;10.958;2022-09-24T14:28:56;19.20;;;12.98;;
9264;SDS011;4669;49.594;10.958;2022-09-24T14:34:02;7.80;;;5.10;;
9264;SDS011;4669;49.594;10.958;2022-09-24T14:39:06;5.72;;;4.15;;
9264;SDS011;4669;49.594;10.958;2022-09-24T14:44:14;5.28;;;4.63;;
9264;SDS011;4669;49.594;10.958;2022-09-24T14:49:23;5.53;;;4.38;;
9264;SDS011;4669;49.594;10.958;2022-09-24T14:54:29;5.88;;;4.75;;
9264;SDS011;4669;49.594;10.958;2022-09-24T14:59:35;6.30;;;4.07;;
9264;SDS011;4669;49.594;10.958;2022-09-24T15:04:38;6.70;;;4.65;;
9264;SDS011;4669;49.594;10.958;2022-09-24T15:09:41;5.22;;;4.72;;
9264;SDS011;4669;49.594;10.958;2022-09-24T15:14:52;7.03;;;4.80;;
9264;SDS011;4669;49.594;10.958;2022-09-24T15:19:55;6.95;;;5.80;;
9264;SDS011;4669;49.594;10.958;2022-09-24T15:24:58;6.57;;;5.07;;
9264;SDS011;4669;49.594;10.958;2022-09-24T15:30:01;6.75;;;5.32;;
9264;SDS011;4669;49.594;10.958;2022-09-24T15:35:05;12.50;;;7.50;;
9264;SDS011;4669;49.594;10.958;2022-09-24T15:40:18;11.75;;;5.80;;
9264;SDS011;4669;49.594;10.958;2022-09-24T15:45:22;8.90;;;5.20;;
9264;SDS011;4669;49.594;10.958;2022-09-24T15:50:25;13.20;;;11.10;;
9264;SDS011;4669;49.594;10.958;2022-09-24T15:55:29;9.10;;;7.80;;
9264;SDS011;4669;49.594;10.958;2022-09-24T16:00:31;6.88;;;6.00;;
9264;SDS011;4669;49.594;10.958;2022-09-24T16:05:33;6.97;;;6.28;;
9264;SDS011;4669;49.594;10.958;2022-09-24T16:10:37;6.50;;;5.80;;
9264;SDS011;4669;49.594;10.958;2022-09-24T16:15:39;10.05;;;8.73;;
9264;SDS011;4669;49.594;10.958;2022-09-24T16:20:41;6.68;;;6.07;;
9264;SDS011;4669;49.594;10.958;2022-09-24T16:25:54;6.80;;;6.10;;
9264;SDS011;4669;49.594;10.958;2022-09-24T16:30:57;7.18;;;5.72;;
9264;SDS011;4669;49.594;10.958;2022-09-24T16:36:02;6.70;;;5.30;;
9264;SDS011;4669;49.594;10.958;2022-09-24T16:41:06;24.95;;;17.65;;
9264;SDS011;4669;49.594;10.958;2022-09-24T16:46:09;9.00;;;7.68;;
9264;SDS011;4669;49.594;10.958;2022-09-24T16:51:11;7.15;;;6.45;;
9264;SDS011;4669;49.594;10.958;2022-09-24T16:56:15;7.88;;;5.25;;
9264;SDS011;4669;49.594;10.958;2022-09-24T17:01:18;7.10;;;4.72;;
9264;SDS011;4669;49.594;10.958;2022-09-24T17:06:21;5.00;;;4.50;;
9264;SDS011;4669;49.594;10.958;2022-09-24T17:11:26;6.60;;;5.63;;
9264;SDS011;4669;49.594;10.958;2022-09-24T17:16:28;6.38;;;5.78;;
9264;SDS011;4669;49.594;10.958;2022-09-24T17:21:30;7.32;;;6.40;;
9264;SDS011;4669;49.594;10.958;2022-09-24T17:26:34;7.57;;;6.22;;
9264;SDS011;4669;49.594;10.958;2022-09-24T17:31:37;7.53;;;6.75;;
9264;SDS011;4669;49.594;10.958;2022-09-24T17:36:40;9.85;;;6.68;;
9264;SDS011;4669;49.594;10.958;2022-09-24T17:41:43;13.25;;;8.57;;
9264;SDS011;4669;49.594;10.958;2022-09-24T17:46:45;10.95;;;9.18;;
9264;SDS011;4669;49.594;10.958;2022-09-24T17:51:47;10.25;;;9.25;;
9264;SDS011;4669;49.594;10.958;2022-09-24T17:56:50;10.88;;;9.55;;
9264;SDS011;4669;49.594;10.958;2022-09-24T18:01:53;13.02;;;11.73;;
9264;SDS011;4669;49.594;10.958;2022-09-24T18:06:55;12.57;;;10.75;;
9264;SDS011;4669;49.594;10.958;2022-09-24T18:11:59;15.27;;;11.23;;
9264;SDS011;4669;49.594;10.958;2022-09-24T18:17:02;15.00;;;12.55;;
9264;SDS011;4669;49.594;10.958;2022-09-24T18:22:05;18.67;;;14.82;;
9264;SDS011;4669;49.594;10.958;2022-09-24T18:27:11;17.88;;;15.35;;
9264;SDS011;4669;49.594;10.958;2022-09-24T18:32:15;15.90;;;14.20;;
9264;SDS011;4669;49.594;10.958;2022-09-24T18:37:19;13.05;;;11.82;;
9264;SDS011;4669;49.594;10.958;2022-09-24T18:42:22;14.18;;;12.50;;
9264;SDS011;4669;49.594;10.958;2022-09-24T18:47:26;15.30;;;13.00;;
9264;SDS011;4669;49.594;10.958;2022-09-24T18:52:28;16.58;;;14.20;;
9264;SDS011;4669;49.594;10.958;2022-09-24T18:57:33;17.20;;;15.07;;
9264;SDS011;4669;49.594;10.958;2022-09-24T19:02:36;15.60;;;14.10;;
9264;SDS011;4669;49.594;10.958;2022-09-24T19:07:38;16.45;;;14.57;;
9264;SDS011;4669;49.594;10.958;2022-09-24T19:12:42;15.57;;;14.00;;
9264;SDS011;4669;49.594;10.958;2022-09-24T19:17:44;15.27;;;13.68;;
9264;SDS011;4669;49.594;10.958;2022-09-24T19:22:46;17.42;;;15.35;;
9264;SDS011;4669;49.594;10.958;2022-09-24T19:27:51;17.80;;;15.98;;
9264;SDS011;4669;49.594;10.958;2022-09-24T19:32:53;17.75;;;15.65;;
9264;SDS011;4669;49.594;10.958;2022-09-24T19:37:56;19.50;;;17.50;;
9264;SDS011;4669;49.594;10.958;2022-09-24T19:43:00;19.55;;;17.55;;
9264;SDS011;4669;49.594;10.958;2022-09-24T19:48:02;19.25;;;17.08;;
9264;SDS011;4669;49.594;10.958;2022-09-24T19:53:04;19.45;;;17.38;;
9264;SDS011;4669;49.594;10.958;2022-09-24T19:58:10;19.08;;;17.17;;
9264;SDS011;4669;49.594;10.958;2022-09-24T20:03:12;20.17;;;18.17;;
9264;SDS011;4669;49.594;10.958;2022-09-24T20:08:16;17.77;;;16.08;;
9264;SDS011;4669;49.594;10.958;2022-09-24T20:13:19;18.58;;;16.67;;
9264;SDS011;4669;49.594;10.958;2022-09-24T20:18:21;20.13;;;18.05;;
9264;SDS011;4669;49.594;10.958;2022-09-24T20:23:24;19.05;;;17.15;;
9264;SDS011;4669;49.594;10.958;2022-09-24T20:28:28;17.85;;;16.15;;
9264;SDS011;4669;49.594;10.958;2022-09-24T20:33:35;17.52;;;15.82;;
9264;SDS011;4669;49.594;10.958;2022-09-24T20:38:41;16.40;;;14.70;;
9264;SDS011;4669;49.594;10.958;2022-09-24T20:43:45;17.15;;;15.43;;
9264;SDS011;4669;49.594;10.958;2022-09-24T20:48:47;16.35;;;14.85;;
9264;SDS011;4669;49.594;10.958;2022-09-24T20:53:49;14.80;;;13.25;;
9264;SDS011;4669;49.594;10.958;2022-09-24T20:58:54;13.35;;;12.15;;
9264;SDS011;4669;49.594;10.958;2022-09-24T21:03:56;13.55;;;12.00;;
9264;SDS011;4669;49.594;10.958;2022-09-24T21:08:58;12.93;;;11.65;;
9264;SDS011;4669;49.594;10.958;2022-09-24T21:14:01;13.35;;;12.13;;
9264;SDS011;4669;49.594;10.958;2022-09-24T21:19:03;14.98;;;13.50;;
9264;SDS011;4669;49.594;10.958;2022-09-24T21:24:08;16.30;;;14.35;;
9264;SDS011;4669;49.594;10.958;2022-09-24T21:29:15;16.63;;;15.00;;
9264;SDS011;4669;49.594;10.958;2022-09-24T21:34:19;17.35;;;15.55;;
9264;SDS011;4669;49.594;10.958;2022-09-24T21:39:22;16.75;;;15.00;;
9264;SDS011;4669;49.594;10.958;2022-09-24T21:44:27;17.27;;;15.45;;
9264;SDS011;4669;49.594;10.958;2022-09-24T21:49:31;20.23;;;18.27;;
9264;SDS011;4669;49.594;10.958;2022-09-24T21:54:35;20.83;;;18.70;;
9264;SDS011;4669;49.594;10.958;2022-09-24T21:59:40;19.92;;;17.90;;
